Ana Sayfa
METAR-TAF:

METAR-TAF

Havaalanları :

Aberdeen, Maryland, Amerika Birleşik Devletleri

Enlem: 39-28N, Boylam: 076-10W, yükseklik: 18 m

Güncel hava durumu gözlemi

Rapor saat 13:58 UTC de 57 dakika önce yapıldı.
Rüzgar batı/kuzeybatıdan 6 kt
Sıcaklık 19°C
Nem 56%
Basınç 1019 hPa
Görüş mesafesi: 11.3 km
9000 ft yükseklikte az bulutlu

METAR: KAPG 241358Z 30006KT 7SM FEW090 19/10 A3008 RMK AO2A SLP189 T01860104

Saat: 10:55 (14:55 UTC)


TAF: eksik

4.000'den fazla havaalanı için hava durumu gözlemleri ve tahminleri (METAR ve TAF raporları).

Kullanılabilir istasyonlar harita üzerinde sarı ve kırmızı noktalarla gösterilir.

İstasyonun adını görmek için fareyi noktanın üzerinde gezdirin.

Sonrasında hava gözlem ve tahminlerini görmek için tıklayın.

Haritayı değiştirmek için: yaklaştırmak için siyah artı işaretli yeşil düğmeye ve uzaklaştırmak için de eksi işaretli düğmeye hızla tıklayın; bitişik haritalar için yeşil okları kullanın.


METAR-TAF: